createdAt,value
2017-10-14T00:01:19.923Z,40.92
2017-10-14T00:03:51.916Z,40.88
2017-10-14T00:06:23.930Z,40.86
2017-10-14T00:09:06.507Z,40.87
2017-10-14T00:11:37.473Z,40.89
2017-10-14T00:14:12.879Z,40.88
2017-10-14T00:16:48.577Z,40.94
2017-10-14T00:19:21.963Z,40.94
2017-10-14T00:21:52.161Z,40.93
2017-10-14T00:24:22.685Z,40.92
2017-10-14T00:26:55.672Z,40.97
2017-10-14T00:29:30.975Z,40.96
2017-10-14T00:32:03.747Z,40.96
2017-10-14T00:34:39.968Z,40.93
2017-10-14T00:37:14.909Z,40.96
2017-10-14T00:39:48.185Z,40.94
2017-10-14T00:48:12.371Z,40.94
2017-10-14T00:53:36.067Z,40.97
2017-10-14T00:56:08.152Z,40.92
2017-10-14T00:58:47.163Z,40.96
2017-10-14T01:01:22.880Z,40.94
2017-10-14T01:03:54.670Z,40.92
2017-10-14T01:06:25.697Z,40.92
2017-10-14T01:09:02.928Z,40.92
2017-10-14T01:11:39.444Z,40.92
2017-10-14T01:14:10.640Z,40.89
2017-10-14T01:16:45.300Z,40.88
2017-10-14T01:19:16.721Z,40.81
2017-10-14T01:21:55.099Z,40.76
2017-10-14T01:24:26.464Z,40.80
2017-10-14T01:26:58.816Z,40.79
2017-10-14T01:29:32.831Z,40.73
2017-10-14T01:32:04.530Z,40.73
2017-10-14T01:34:34.817Z,40.72
2017-10-14T01:37:05.310Z,40.72
2017-10-14T01:39:37.184Z,40.67
2017-10-14T01:42:08.348Z,40.66
2017-10-14T01:46:32.784Z,40.60
2017-10-14T01:49:03.669Z,40.47
2017-10-14T01:51:39.882Z,40.46
2017-10-14T01:54:12.153Z,40.49
2017-10-14T01:56:48.983Z,40.49
2017-10-14T01:59:20.038Z,40.49
2017-10-14T02:01:57.067Z,40.49
2017-10-14T02:04:27.739Z,40.48
2017-10-14T02:07:05.158Z,40.44
2017-10-14T02:09:39.053Z,40.43
2017-10-14T02:12:12.077Z,40.44
2017-10-14T02:14:45.979Z,40.40
2017-10-14T02:17:20.593Z,40.35
2017-10-14T02:19:56.019Z,40.31
2017-10-14T02:22:27.079Z,40.35
2017-10-14T02:25:00.829Z,40.31
2017-10-14T02:27:32.629Z,40.31
2017-10-14T02:30:24.087Z,40.30
2017-10-14T02:32:54.395Z,40.35
2017-10-14T02:35:25.489Z,40.34
2017-10-14T02:37:57.442Z,40.33
2017-10-14T02:40:28.312Z,40.29
2017-10-14T02:42:59.594Z,40.32
2017-10-14T02:45:34.383Z,40.30
2017-10-14T02:48:05.530Z,40.29
2017-10-14T02:50:35.268Z,40.31
2017-10-14T02:53:06.438Z,40.32
2017-10-14T02:55:37.378Z,40.33
2017-10-14T02:58:07.135Z,40.32
2017-10-14T03:03:17.765Z,40.19
2017-10-14T03:05:48.324Z,40.15
2017-10-14T03:08:18.456Z,40.15
2017-10-14T03:10:51.224Z,40.08
2017-10-14T03:13:21.535Z,40.11
2017-10-14T03:15:51.670Z,40.06
2017-10-14T03:18:23.897Z,40.02
2017-10-14T03:20:55.362Z,40.00
2017-10-14T03:23:25.973Z,40.04
2017-10-14T03:25:58.857Z,40.00
2017-10-14T03:28:31.247Z,40.07
2017-10-14T03:31:01.960Z,40.07
2017-10-14T03:33:32.899Z,40.05
2017-10-14T03:36:03.238Z,40.03
2017-10-14T03:38:38.286Z,40.02
2017-10-14T03:41:08.631Z,40.00
2017-10-14T03:43:39.914Z,39.99
2017-10-14T03:46:11.578Z,39.98
2017-10-14T03:48:46.338Z,39.98
2017-10-14T03:51:16.968Z,39.96
2017-10-14T03:53:49.120Z,39.89
2017-10-14T03:56:19.525Z,39.91
2017-10-14T03:58:51.191Z,39.89
2017-10-14T04:01:23.199Z,39.90
2017-10-14T04:03:53.829Z,39.88
2017-10-14T04:06:24.499Z,39.88
2017-10-14T04:08:54.222Z,39.89
2017-10-14T04:11:24.206Z,39.85
2017-10-14T04:13:55.718Z,39.87
2017-10-14T04:16:26.245Z,39.86
2017-10-14T04:18:56.954Z,39.87
2017-10-14T04:21:29.776Z,39.86
2017-10-14T04:24:00.080Z,39.85
2017-10-14T04:26:30.041Z,39.84
2017-10-14T04:29:01.239Z,39.80
2017-10-14T04:31:32.519Z,39.78
2017-10-14T04:34:03.806Z,39.81
2017-10-14T04:36:49.674Z,39.77
2017-10-14T04:39:19.712Z,39.84
2017-10-14T04:41:56.668Z,39.83
2017-10-14T04:44:26.546Z,39.79
2017-10-14T04:46:58.523Z,39.80
2017-10-14T04:49:32.455Z,39.74
2017-10-14T04:52:03.121Z,39.82
2017-10-14T04:54:55.178Z,39.78
2017-10-14T04:57:30.699Z,39.80
2017-10-14T05:00:04.719Z,39.80
2017-10-14T05:02:37.016Z,39.75
2017-10-14T05:05:07.427Z,39.77
2017-10-14T05:07:38.528Z,39.75
2017-10-14T05:10:12.395Z,39.75
2017-10-14T05:12:48.862Z,39.75
2017-10-14T05:15:20.525Z,39.67
2017-10-14T05:17:50.638Z,39.76
2017-10-14T05:20:20.716Z,39.72
2017-10-14T05:22:53.565Z,39.72
2017-10-14T05:25:24.063Z,39.72
2017-10-14T05:27:54.017Z,39.72
2017-10-14T05:30:24.125Z,39.77
2017-10-14T05:32:56.270Z,39.82
2017-10-14T05:35:26.595Z,39.84
2017-10-14T05:37:58.505Z,39.85
2017-10-14T05:40:31.230Z,39.81
2017-10-14T05:43:03.608Z,39.74
2017-10-14T05:45:34.858Z,39.75
2017-10-14T05:48:05.360Z,39.75
2017-10-14T05:50:37.231Z,39.75
2017-10-14T05:53:08.643Z,39.72
2017-10-14T05:55:40.953Z,39.72
2017-10-14T05:58:10.960Z,39.69
2017-10-14T06:00:41.844Z,39.67
2017-10-14T06:03:12.493Z,39.62
2017-10-14T06:05:43.133Z,39.60
2017-10-14T06:08:14.404Z,39.61
2017-10-14T06:10:48.413Z,39.55
2017-10-14T06:13:21.639Z,39.53
2017-10-14T06:15:52.711Z,39.46
2017-10-14T06:18:27.777Z,39.39
2017-10-14T06:20:59.625Z,39.33
2017-10-14T06:23:31.086Z,39.25
2017-10-14T06:26:02.249Z,39.27
2017-10-14T06:28:38.709Z,39.26
2017-10-14T06:31:10.090Z,39.17
2017-10-14T06:33:47.610Z,39.23
2017-10-14T06:36:18.223Z,39.23
2017-10-14T06:38:54.041Z,39.21
2017-10-14T06:41:25.093Z,39.21
2017-10-14T06:43:55.498Z,39.17
2017-10-14T06:46:28.620Z,39.08
2017-10-14T06:48:58.742Z,39.06
2017-10-14T06:51:30.475Z,39.04
2017-10-14T06:54:00.855Z,39.04
2017-10-14T06:56:32.165Z,39.05
2017-10-14T06:59:03.062Z,39.04
2017-10-14T07:01:34.391Z,39.02
2017-10-14T07:04:05.154Z,38.96
2017-10-14T07:06:35.453Z,38.97
2017-10-14T07:09:06.521Z,38.95
2017-10-14T07:11:36.593Z,38.95
2017-10-14T07:14:07.087Z,38.93
2017-10-14T07:16:43.319Z,38.81
2017-10-14T07:19:18.338Z,38.88
2017-10-14T07:22:00.437Z,38.88
2017-10-14T07:24:36.086Z,38.85
2017-10-14T07:27:12.755Z,38.84
2017-10-14T07:29:51.998Z,38.75
2017-10-14T07:32:22.211Z,38.79
2017-10-14T07:35:08.673Z,38.73
2017-10-14T07:37:41.475Z,38.75
2017-10-14T07:40:14.859Z,38.74
2017-10-14T07:42:50.919Z,38.72
2017-10-14T07:45:24.152Z,38.69
2017-10-14T07:47:56.857Z,38.63
2017-10-14T07:50:29.716Z,38.59
2017-10-14T07:53:04.288Z,38.63
2017-10-14T07:55:34.569Z,38.60
2017-10-14T07:58:05.145Z,38.59
2017-10-14T08:00:35.108Z,38.58
2017-10-14T08:03:05.137Z,38.57
2017-10-14T08:05:35.415Z,38.52
2017-10-14T08:08:05.601Z,38.47
2017-10-14T08:10:38.807Z,38.41
2017-10-14T08:13:09.129Z,38.38
2017-10-14T08:15:38.933Z,38.35
2017-10-14T08:18:10.941Z,38.29
2017-10-14T08:20:41.526Z,38.26
2017-10-14T08:23:11.456Z,38.20
2017-10-14T08:25:46.692Z,38.12
2017-10-14T08:28:18.630Z,38.09
2017-10-14T08:30:51.655Z,38.00
2017-10-14T08:33:23.370Z,37.98
2017-10-14T08:35:55.228Z,37.91
2017-10-14T08:38:26.462Z,37.84
2017-10-14T08:41:03.269Z,37.75
2017-10-14T08:43:34.794Z,37.65
2017-10-14T08:46:07.213Z,37.57
2017-10-14T08:48:43.151Z,37.48
2017-10-14T08:51:15.948Z,37.38
2017-10-14T08:53:49.747Z,37.36
2017-10-14T08:56:21.524Z,37.33
2017-10-14T08:58:52.682Z,37.34
2017-10-14T09:01:24.600Z,37.29
2017-10-14T09:03:57.420Z,37.26
2017-10-14T09:06:29.222Z,37.23
2017-10-14T09:10:06.011Z,37.20
2017-10-14T09:12:38.993Z,37.13
2017-10-14T09:15:22.149Z,37.12
2017-10-14T09:17:56.256Z,37.07
2017-10-14T09:20:28.514Z,37.02
2017-10-14T09:23:00.552Z,36.99
2017-10-14T09:25:32.637Z,36.95
2017-10-14T09:28:07.252Z,36.87
2017-10-14T09:30:39.249Z,36.80
2017-10-14T09:33:11.169Z,36.78
2017-10-14T09:35:47.884Z,36.74
2017-10-14T09:38:20.102Z,36.70
2017-10-14T09:40:53.065Z,36.66
2017-10-14T09:43:25.198Z,36.60
2017-10-14T09:45:58.387Z,36.56
2017-10-14T09:48:30.845Z,36.52
2017-10-14T09:51:02.864Z,36.46
2017-10-14T09:53:37.269Z,36.45
2017-10-14T09:56:11.513Z,36.42
2017-10-14T09:58:42.951Z,36.39
2017-10-14T10:01:46.745Z,36.29
2017-10-14T10:04:20.931Z,36.15
2017-10-14T10:07:00.256Z,36.11
2017-10-14T10:09:39.286Z,36.09
2017-10-14T10:12:11.807Z,36.11
2017-10-14T10:14:46.513Z,36.13
2017-10-14T10:17:18.852Z,36.12
2017-10-14T10:19:52.859Z,36.00
2017-10-14T10:23:07.155Z,36.00
2017-10-14T10:37:22.322Z,35.59
2017-10-14T10:47:11.284Z,35.44
2017-10-14T10:57:37.069Z,35.31
2017-10-14T11:00:13.317Z,35.35
2017-10-14T11:06:25.578Z,35.28
2017-10-14T11:09:46.840Z,35.32
2017-10-14T11:12:50.870Z,35.26
2017-10-14T11:16:11.916Z,35.28
2017-10-14T11:31:17.309Z,35.04
2017-10-14T11:42:15.916Z,35.00
2017-10-14T11:44:58.113Z,35.08
2017-10-14T11:47:29.743Z,35.10
2017-10-14T11:50:03.493Z,35.04
2017-10-14T11:57:08.905Z,35.08
2017-10-14T11:59:41.847Z,35.07
2017-10-14T12:02:16.205Z,35.06
2017-10-14T12:04:54.871Z,34.99
2017-10-14T12:07:33.416Z,34.97
2017-10-14T12:24:45.572Z,34.75
2017-10-14T12:36:31.153Z,34.87
2017-10-14T12:39:09.097Z,34.74
2017-10-14T12:41:43.024Z,34.62
2017-10-14T12:44:17.203Z,34.54
2017-10-14T12:46:51.499Z,34.48
2017-10-14T12:49:25.165Z,34.42
2017-10-14T12:56:31.643Z,35.09
2017-10-14T13:08:07.979Z,37.98
2017-10-14T13:10:41.454Z,37.84
2017-10-14T13:13:23.727Z,37.54
2017-10-14T13:47:13.365Z,36.13
2017-10-14T13:49:49.117Z,36.20
2017-10-14T13:56:53.620Z,36.15
2017-10-14T13:59:26.418Z,36.17
2017-10-14T14:23:43.419Z,36.01
2017-10-14T15:01:58.026Z,36.57
2017-10-14T15:04:32.294Z,36.51
2017-10-14T15:07:18.602Z,36.71
2017-10-14T15:10:05.970Z,36.75
2017-10-14T15:13:11.739Z,36.83
2017-10-14T15:51:07.050Z,38.09
2017-10-14T15:53:40.290Z,38.13
2017-10-14T15:56:16.737Z,38.14
2017-10-14T15:58:52.952Z,38.17
2017-10-14T16:01:27.089Z,38.22
2017-10-14T16:04:00.999Z,38.27
2017-10-14T16:09:47.396Z,38.24
2017-10-14T16:12:20.431Z,38.37
2017-10-14T16:14:52.930Z,38.33
2017-10-14T16:17:24.296Z,38.56
2017-10-14T16:19:56.871Z,38.64
2017-10-14T16:22:28.005Z,38.71
2017-10-14T16:25:00.969Z,38.76
2017-10-14T16:27:33.318Z,38.83
2017-10-14T16:30:09.950Z,38.89
2017-10-14T16:32:43.337Z,38.95
2017-10-14T16:35:18.272Z,39.03
2017-10-14T16:37:51.688Z,39.09
2017-10-14T16:40:24.569Z,39.12
2017-10-14T16:42:57.607Z,39.20
2017-10-14T16:45:31.017Z,39.25
2017-10-14T16:48:03.772Z,39.33
2017-10-14T16:50:38.003Z,39.39
2017-10-14T16:53:11.144Z,39.44
2017-10-14T16:55:48.937Z,39.49
2017-10-14T16:58:23.987Z,39.47
2017-10-14T17:00:54.999Z,39.56
2017-10-14T17:03:28.758Z,39.62
2017-10-14T17:06:00.637Z,39.67
2017-10-14T17:08:31.916Z,39.73
2017-10-14T17:11:04.688Z,39.79
2017-10-14T17:13:37.291Z,39.83
2017-10-14T17:16:09.676Z,39.87
2017-10-14T17:18:41.901Z,39.91
2017-10-14T17:21:14.472Z,39.93
2017-10-14T17:23:48.625Z,39.96
2017-10-14T17:26:22.131Z,40.00
2017-10-14T17:28:54.531Z,40.03
2017-10-14T17:31:26.556Z,40.10
2017-10-14T17:33:59.042Z,40.16
2017-10-14T17:36:34.039Z,40.20
2017-10-14T17:39:11.327Z,40.24
2017-10-14T17:41:47.688Z,40.29
2017-10-14T17:44:20.991Z,40.32
2017-10-14T17:46:58.215Z,40.33
2017-10-14T17:49:33.598Z,40.35
2017-10-14T17:52:08.279Z,40.27
2017-10-14T17:54:50.999Z,40.30
2017-10-14T17:57:29.034Z,40.35
2017-10-14T18:00:07.764Z,40.40
2017-10-14T18:02:43.045Z,40.46
2017-10-14T18:05:19.338Z,40.47
2017-10-14T18:07:55.965Z,40.45
2017-10-14T18:10:30.681Z,40.53
2017-10-14T18:13:05.837Z,40.55
2017-10-14T18:41:43.985Z,40.63
2017-10-14T18:44:18.100Z,40.71
2017-10-14T18:46:51.214Z,40.81
2017-10-14T18:49:28.113Z,40.86
2017-10-14T19:01:33.113Z,40.59
2017-10-14T19:04:10.379Z,40.73
2017-10-14T19:06:43.813Z,40.80
2017-10-14T19:09:17.090Z,40.84
2017-10-14T19:11:55.296Z,40.89
2017-10-14T19:14:32.639Z,40.93
2017-10-14T19:17:10.123Z,40.98
2017-10-14T19:19:43.608Z,41.01
2017-10-14T19:22:19.086Z,41.02
2017-10-14T19:24:55.600Z,41.02
2017-10-14T19:27:30.621Z,41.05
2017-10-14T19:30:11.958Z,41.06
2017-10-14T19:32:50.072Z,41.07
2017-10-14T19:35:56.640Z,40.99
2017-10-14T19:38:30.030Z,41.05
2017-10-14T19:41:05.858Z,41.06
2017-10-14T19:43:40.070Z,41.09
2017-10-14T19:46:12.753Z,41.10
2017-10-14T19:48:48.984Z,41.12
2017-10-14T19:51:23.107Z,41.14
2017-10-14T19:53:56.774Z,41.16
2017-10-14T19:56:30.429Z,41.17
2017-10-14T19:59:02.438Z,41.23
2017-10-14T20:01:41.556Z,41.27
2017-10-14T20:04:15.810Z,41.29
2017-10-14T20:06:58.954Z,41.34
2017-10-14T20:09:37.817Z,41.37
2017-10-14T20:12:18.822Z,41.38
2017-10-14T20:15:05.467Z,41.41
2017-10-14T20:17:52.640Z,41.40
2017-10-14T20:20:28.092Z,41.39
2017-10-14T20:23:00.334Z,41.36
2017-10-14T20:25:33.909Z,41.33
2017-10-14T20:28:08.684Z,41.33
2017-10-14T20:30:43.304Z,41.34
2017-10-14T20:33:18.523Z,41.37
2017-10-14T20:36:23.496Z,41.25
2017-10-14T20:46:30.509Z,40.77
2017-10-14T21:37:55.157Z,42.00
2017-10-14T21:45:02.043Z,42.03
2017-10-14T21:52:07.719Z,42.40
2017-10-14T21:54:39.547Z,42.35
2017-10-14T21:57:19.007Z,42.19
2017-10-14T21:59:54.621Z,42.17
2017-10-14T22:02:32.784Z,42.14
2017-10-14T22:05:28.708Z,42.11
2017-10-14T22:12:39.764Z,42.07
2017-10-14T22:15:14.196Z,42.11
2017-10-14T22:17:50.601Z,42.07
2017-10-14T22:20:23.858Z,42.07
2017-10-14T22:22:56.925Z,42.07
2017-10-14T22:25:33.259Z,42.07
2017-10-14T22:28:06.705Z,42.07
2017-10-14T22:30:39.939Z,42.07
2017-10-14T22:33:12.568Z,42.09
2017-10-14T22:35:52.498Z,42.08
2017-10-14T22:38:25.573Z,42.08
2017-10-14T22:45:29.963Z,42.26
2017-10-14T22:52:35.231Z,42.29
2017-10-14T22:55:07.726Z,42.30
2017-10-14T22:57:39.796Z,42.27
